sensor_id;sensor_type;location;lat;lon;timestamp;P1;durP1;ratioP1;P2;durP2;ratioP2
19836;SDS011;10079;55.740;37.662;2022-11-11T00:02:14;36.33;;;16.73;;
19836;SDS011;10079;55.740;37.662;2022-11-11T00:05:20;36.03;;;17.73;;
19836;SDS011;10079;55.740;37.662;2022-11-11T00:08:24;38.20;;;18.37;;
19836;SDS011;10079;55.740;37.662;2022-11-11T00:11:27;32.30;;;17.50;;
19836;SDS011;10079;55.740;37.662;2022-11-11T00:14:33;35.30;;;18.13;;
19836;SDS011;10079;55.740;37.662;2022-11-11T00:17:36;33.00;;;16.27;;
19836;SDS011;10079;55.740;37.662;2022-11-11T00:20:40;32.43;;;16.60;;
19836;SDS011;10079;55.740;37.662;2022-11-11T00:23:55;34.77;;;17.87;;
19836;SDS011;10079;55.740;37.662;2022-11-11T00:26:58;38.40;;;17.00;;
19836;SDS011;10079;55.740;37.662;2022-11-11T00:30:01;37.53;;;18.53;;
19836;SDS011;10079;55.740;37.662;2022-11-11T00:33:04;34.77;;;16.27;;
19836;SDS011;10079;55.740;37.662;2022-11-11T00:36:08;34.27;;;18.03;;
19836;SDS011;10079;55.740;37.662;2022-11-11T00:39:13;32.70;;;15.90;;
19836;SDS011;10079;55.740;37.662;2022-11-11T00:42:17;33.50;;;16.57;;
19836;SDS011;10079;55.740;37.662;2022-11-11T00:45:20;34.37;;;17.30;;
19836;SDS011;10079;55.740;37.662;2022-11-11T00:48:23;34.37;;;16.90;;
19836;SDS011;10079;55.740;37.662;2022-11-11T00:51:27;30.83;;;15.83;;
19836;SDS011;10079;55.740;37.662;2022-11-11T00:54:30;33.43;;;16.47;;
19836;SDS011;10079;55.740;37.662;2022-11-11T00:57:42;32.33;;;16.03;;
19836;SDS011;10079;55.740;37.662;2022-11-11T01:00:45;34.07;;;17.20;;
19836;SDS011;10079;55.740;37.662;2022-11-11T01:03:57;35.73;;;17.07;;
19836;SDS011;10079;55.740;37.662;2022-11-11T01:07:03;34.67;;;17.73;;
19836;SDS011;10079;55.740;37.662;2022-11-11T01:10:07;34.20;;;16.33;;
19836;SDS011;10079;55.740;37.662;2022-11-11T01:13:20;29.53;;;15.50;;
19836;SDS011;10079;55.740;37.662;2022-11-11T01:16:24;30.80;;;15.70;;
19836;SDS011;10079;55.740;37.662;2022-11-11T01:19:25;34.90;;;16.77;;
19836;SDS011;10079;55.740;37.662;2022-11-11T01:22:28;31.00;;;16.33;;
19836;SDS011;10079;55.740;37.662;2022-11-11T01:25:32;29.23;;;14.70;;
19836;SDS011;10079;55.740;37.662;2022-11-11T01:28:34;26.20;;;14.77;;
19836;SDS011;10079;55.740;37.662;2022-11-11T01:31:37;30.17;;;14.37;;
19836;SDS011;10079;55.740;37.662;2022-11-11T01:34:43;25.60;;;14.27;;
19836;SDS011;10079;55.740;37.662;2022-11-11T01:37:55;28.07;;;15.03;;
19836;SDS011;10079;55.740;37.662;2022-11-11T01:41:01;24.97;;;14.07;;
19836;SDS011;10079;55.740;37.662;2022-11-11T01:44:17;26.33;;;13.33;;
19836;SDS011;10079;55.740;37.662;2022-11-11T01:47:32;29.83;;;14.77;;
19836;SDS011;10079;55.740;37.662;2022-11-11T01:50:38;25.37;;;13.40;;
19836;SDS011;10079;55.740;37.662;2022-11-11T01:53:51;27.60;;;14.73;;
19836;SDS011;10079;55.740;37.662;2022-11-11T01:56:59;27.57;;;12.70;;
19836;SDS011;10079;55.740;37.662;2022-11-11T02:00:07;25.23;;;12.33;;
19836;SDS011;10079;55.740;37.662;2022-11-11T02:03:09;21.93;;;11.40;;
19836;SDS011;10079;55.740;37.662;2022-11-11T02:06:12;23.40;;;12.17;;
19836;SDS011;10079;55.740;37.662;2022-11-11T02:09:15;18.97;;;10.73;;
19836;SDS011;10079;55.740;37.662;2022-11-11T02:12:18;21.97;;;11.40;;
19836;SDS011;10079;55.740;37.662;2022-11-11T02:15:30;20.33;;;10.50;;
19836;SDS011;10079;55.740;37.662;2022-11-11T02:18:49;19.30;;;10.73;;
19836;SDS011;10079;55.740;37.662;2022-11-11T02:21:56;19.83;;;10.50;;
19836;SDS011;10079;55.740;37.662;2022-11-11T02:25:01;19.67;;;10.00;;
19836;SDS011;10079;55.740;37.662;2022-11-11T02:28:05;16.00;;;9.43;;
19836;SDS011;10079;55.740;37.662;2022-11-11T02:31:07;16.77;;;10.30;;
19836;SDS011;10079;55.740;37.662;2022-11-11T02:34:10;16.80;;;9.37;;
19836;SDS011;10079;55.740;37.662;2022-11-11T02:37:18;19.40;;;9.53;;
19836;SDS011;10079;55.740;37.662;2022-11-11T02:40:29;18.20;;;8.90;;
19836;SDS011;10079;55.740;37.662;2022-11-11T02:43:33;17.27;;;8.70;;
19836;SDS011;10079;55.740;37.662;2022-11-11T02:46:39;16.97;;;9.33;;
19836;SDS011;10079;55.740;37.662;2022-11-11T02:49:42;15.67;;;8.87;;
19836;SDS011;10079;55.740;37.662;2022-11-11T02:52:45;14.10;;;8.57;;
19836;SDS011;10079;55.740;37.662;2022-11-11T02:55:48;15.80;;;8.57;;
19836;SDS011;10079;55.740;37.662;2022-11-11T02:58:54;12.43;;;7.80;;
19836;SDS011;10079;55.740;37.662;2022-11-11T03:01:58;14.17;;;7.73;;
19836;SDS011;10079;55.740;37.662;2022-11-11T03:05:02;13.50;;;7.60;;
19836;SDS011;10079;55.740;37.662;2022-11-11T03:08:06;14.37;;;6.67;;
19836;SDS011;10079;55.740;37.662;2022-11-11T03:11:09;14.87;;;8.73;;
19836;SDS011;10079;55.740;37.662;2022-11-11T03:14:11;12.60;;;6.47;;
19836;SDS011;10079;55.740;37.662;2022-11-11T03:17:14;12.20;;;7.07;;
19836;SDS011;10079;55.740;37.662;2022-11-11T03:20:18;11.27;;;6.93;;
19836;SDS011;10079;55.740;37.662;2022-11-11T03:23:23;11.73;;;7.17;;
19836;SDS011;10079;55.740;37.662;2022-11-11T03:37:18;11.70;;;7.13;;
19836;SDS011;10079;55.740;37.662;2022-11-11T03:40:25;9.47;;;6.07;;
19836;SDS011;10079;55.740;37.662;2022-11-11T03:43:32;8.70;;;6.00;;
19836;SDS011;10079;55.740;37.662;2022-11-11T03:46:35;10.53;;;5.93;;
19836;SDS011;10079;55.740;37.662;2022-11-11T03:49:41;11.53;;;6.27;;
19836;SDS011;10079;55.740;37.662;2022-11-11T03:52:48;10.70;;;6.33;;
19836;SDS011;10079;55.740;37.662;2022-11-11T03:55:54;8.57;;;6.13;;
19836;SDS011;10079;55.740;37.662;2022-11-11T03:59:00;10.07;;;6.40;;
19836;SDS011;10079;55.740;37.662;2022-11-11T04:02:04;10.20;;;5.87;;
19836;SDS011;10079;55.740;37.662;2022-11-11T04:05:07;10.80;;;6.03;;
19836;SDS011;10079;55.740;37.662;2022-11-11T04:08:13;9.37;;;6.10;;
19836;SDS011;10079;55.740;37.662;2022-11-11T04:11:23;9.40;;;5.93;;
19836;SDS011;10079;55.740;37.662;2022-11-11T04:14:27;10.37;;;5.73;;
19836;SDS011;10079;55.740;37.662;2022-11-11T04:17:33;10.23;;;6.20;;
19836;SDS011;10079;55.740;37.662;2022-11-11T04:20:41;9.63;;;6.60;;
19836;SDS011;10079;55.740;37.662;2022-11-11T04:23:43;9.43;;;6.00;;
19836;SDS011;10079;55.740;37.662;2022-11-11T04:26:46;10.93;;;6.67;;
19836;SDS011;10079;55.740;37.662;2022-11-11T04:29:57;11.50;;;6.70;;
19836;SDS011;10079;55.740;37.662;2022-11-11T04:33:08;9.47;;;6.33;;
19836;SDS011;10079;55.740;37.662;2022-11-11T04:36:14;11.20;;;5.87;;
19836;SDS011;10079;55.740;37.662;2022-11-11T04:39:21;12.13;;;7.00;;
19836;SDS011;10079;55.740;37.662;2022-11-11T04:53:02;10.77;;;6.13;;
19836;SDS011;10079;55.740;37.662;2022-11-11T04:56:06;8.83;;;5.73;;
19836;SDS011;10079;55.740;37.662;2022-11-11T04:59:22;11.10;;;6.10;;
19836;SDS011;10079;55.740;37.662;2022-11-11T05:02:27;9.63;;;6.10;;
19836;SDS011;10079;55.740;37.662;2022-11-11T05:05:34;8.57;;;5.77;;
19836;SDS011;10079;55.740;37.662;2022-11-11T05:08:39;9.17;;;6.10;;
19836;SDS011;10079;55.740;37.662;2022-11-11T05:11:42;11.63;;;6.30;;
19836;SDS011;10079;55.740;37.662;2022-11-11T05:14:48;10.53;;;5.83;;
19836;SDS011;10079;55.740;37.662;2022-11-11T05:17:54;10.50;;;6.00;;
19836;SDS011;10079;55.740;37.662;2022-11-11T05:20:57;9.43;;;5.83;;
19836;SDS011;10079;55.740;37.662;2022-11-11T05:24:00;13.03;;;5.93;;
19836;SDS011;10079;55.740;37.662;2022-11-11T05:27:08;11.57;;;6.77;;
19836;SDS011;10079;55.740;37.662;2022-11-11T05:30:14;9.30;;;5.87;;
19836;SDS011;10079;55.740;37.662;2022-11-11T05:33:18;9.67;;;5.77;;
19836;SDS011;10079;55.740;37.662;2022-11-11T05:36:21;10.37;;;6.33;;
19836;SDS011;10079;55.740;37.662;2022-11-11T05:39:23;11.80;;;5.80;;
19836;SDS011;10079;55.740;37.662;2022-11-11T05:42:26;9.53;;;6.07;;
19836;SDS011;10079;55.740;37.662;2022-11-11T05:45:29;11.47;;;5.93;;
19836;SDS011;10079;55.740;37.662;2022-11-11T05:48:33;9.23;;;6.13;;
19836;SDS011;10079;55.740;37.662;2022-11-11T05:51:36;8.40;;;5.93;;
19836;SDS011;10079;55.740;37.662;2022-11-11T05:54:38;8.77;;;5.87;;
19836;SDS011;10079;55.740;37.662;2022-11-11T05:57:42;9.13;;;5.57;;
19836;SDS011;10079;55.740;37.662;2022-11-11T06:00:48;9.80;;;5.87;;
19836;SDS011;10079;55.740;37.662;2022-11-11T06:03:54;9.43;;;5.87;;
19836;SDS011;10079;55.740;37.662;2022-11-11T06:17:43;8.17;;;5.70;;
19836;SDS011;10079;55.740;37.662;2022-11-11T06:20:55;8.50;;;5.27;;
19836;SDS011;10079;55.740;37.662;2022-11-11T06:24:10;9.30;;;5.67;;
19836;SDS011;10079;55.740;37.662;2022-11-11T06:27:13;8.33;;;5.60;;
19836;SDS011;10079;55.740;37.662;2022-11-11T06:30:16;7.87;;;5.57;;
19836;SDS011;10079;55.740;37.662;2022-11-11T06:43:58;10.10;;;6.40;;
19836;SDS011;10079;55.740;37.662;2022-11-11T06:47:05;8.80;;;5.80;;
19836;SDS011;10079;55.740;37.662;2022-11-11T06:50:11;8.87;;;5.60;;
19836;SDS011;10079;55.740;37.662;2022-11-11T06:53:22;7.07;;;5.57;;
19836;SDS011;10079;55.740;37.662;2022-11-11T06:56:26;10.97;;;6.57;;
19836;SDS011;10079;55.740;37.662;2022-11-11T06:59:39;10.17;;;6.43;;
19836;SDS011;10079;55.740;37.662;2022-11-11T07:02:45;10.33;;;5.90;;
19836;SDS011;10079;55.740;37.662;2022-11-11T07:05:53;9.00;;;6.07;;
19836;SDS011;10079;55.740;37.662;2022-11-11T07:08:59;10.87;;;5.77;;
19836;SDS011;10079;55.740;37.662;2022-11-11T07:12:11;9.97;;;6.43;;
19836;SDS011;10079;55.740;37.662;2022-11-11T07:15:16;10.40;;;6.20;;
19836;SDS011;10079;55.740;37.662;2022-11-11T07:18:33;9.07;;;6.10;;
19836;SDS011;10079;55.740;37.662;2022-11-11T07:21:37;9.40;;;6.00;;
19836;SDS011;10079;55.740;37.662;2022-11-11T07:24:40;9.87;;;6.57;;
19836;SDS011;10079;55.740;37.662;2022-11-11T07:27:43;9.10;;;5.93;;
19836;SDS011;10079;55.740;37.662;2022-11-11T07:30:54;8.53;;;5.63;;
19836;SDS011;10079;55.740;37.662;2022-11-11T07:33:58;8.20;;;5.33;;
19836;SDS011;10079;55.740;37.662;2022-11-11T07:37:01;11.27;;;6.13;;
19836;SDS011;10079;55.740;37.662;2022-11-11T07:40:04;8.90;;;5.40;;
19836;SDS011;10079;55.740;37.662;2022-11-11T07:43:10;9.27;;;5.70;;
19836;SDS011;10079;55.740;37.662;2022-11-11T07:46:16;8.17;;;5.70;;
19836;SDS011;10079;55.740;37.662;2022-11-11T07:59:51;13.63;;;6.13;;
19836;SDS011;10079;55.740;37.662;2022-11-11T08:02:57;8.83;;;5.80;;
19836;SDS011;10079;55.740;37.662;2022-11-11T08:06:01;8.73;;;5.63;;
19836;SDS011;10079;55.740;37.662;2022-11-11T08:09:03;8.37;;;5.53;;
19836;SDS011;10079;55.740;37.662;2022-11-11T08:12:07;11.80;;;6.20;;
19836;SDS011;10079;55.740;37.662;2022-11-11T08:15:12;10.30;;;6.30;;
19836;SDS011;10079;55.740;37.662;2022-11-11T08:18:19;10.53;;;6.37;;
19836;SDS011;10079;55.740;37.662;2022-11-11T08:21:23;11.10;;;6.53;;
19836;SDS011;10079;55.740;37.662;2022-11-11T08:24:25;11.73;;;6.00;;
19836;SDS011;10079;55.740;37.662;2022-11-11T08:27:28;9.97;;;6.60;;
19836;SDS011;10079;55.740;37.662;2022-11-11T08:30:35;11.50;;;6.87;;
19836;SDS011;10079;55.740;37.662;2022-11-11T08:33:39;11.60;;;6.00;;
19836;SDS011;10079;55.740;37.662;2022-11-11T08:36:46;11.37;;;6.77;;
19836;SDS011;10079;55.740;37.662;2022-11-11T08:39:51;9.43;;;6.57;;
19836;SDS011;10079;55.740;37.662;2022-11-11T08:42:57;10.17;;;6.07;;
19836;SDS011;10079;55.740;37.662;2022-11-11T08:46:09;10.90;;;6.37;;
19836;SDS011;10079;55.740;37.662;2022-11-11T09:00:13;11.63;;;6.77;;
19836;SDS011;10079;55.740;37.662;2022-11-11T09:14:11;10.73;;;5.77;;
19836;SDS011;10079;55.740;37.662;2022-11-11T09:17:22;9.27;;;5.43;;
19836;SDS011;10079;55.740;37.662;2022-11-11T09:20:36;12.30;;;6.40;;
19836;SDS011;10079;55.740;37.662;2022-11-11T09:23:43;10.23;;;6.53;;
19836;SDS011;10079;55.740;37.662;2022-11-11T09:37:37;9.47;;;6.87;;
19836;SDS011;10079;55.740;37.662;2022-11-11T09:41:24;9.87;;;6.30;;
19836;SDS011;10079;55.740;37.662;2022-11-11T09:44:32;9.00;;;5.90;;
19836;SDS011;10079;55.740;37.662;2022-11-11T09:51:27;10.07;;;6.13;;
19836;SDS011;10079;55.740;37.662;2022-11-11T09:54:43;10.23;;;6.10;;
19836;SDS011;10079;55.740;37.662;2022-11-11T09:57:59;7.80;;;5.00;;
19836;SDS011;10079;55.740;37.662;2022-11-11T10:01:18;9.67;;;5.30;;
19836;SDS011;10079;55.740;37.662;2022-11-11T10:04:27;7.53;;;4.70;;
19836;SDS011;10079;55.740;37.662;2022-11-11T10:07:35;5.73;;;4.50;;
19836;SDS011;10079;55.740;37.662;2022-11-11T10:10:41;7.50;;;4.73;;
19836;SDS011;10079;55.740;37.662;2022-11-11T10:13:55;9.17;;;5.60;;
19836;SDS011;10079;55.740;37.662;2022-11-11T10:17:06;10.30;;;5.20;;
19836;SDS011;10079;55.740;37.662;2022-11-11T10:20:25;8.13;;;5.30;;
19836;SDS011;10079;55.740;37.662;2022-11-11T10:23:29;9.33;;;5.60;;
19836;SDS011;10079;55.740;37.662;2022-11-11T10:26:39;9.63;;;5.47;;
19836;SDS011;10079;55.740;37.662;2022-11-11T10:29:42;8.40;;;5.03;;
19836;SDS011;10079;55.740;37.662;2022-11-11T10:32:52;9.40;;;5.43;;
19836;SDS011;10079;55.740;37.662;2022-11-11T10:35:59;8.73;;;5.20;;
19836;SDS011;10079;55.740;37.662;2022-11-11T10:39:03;6.93;;;5.40;;
19836;SDS011;10079;55.740;37.662;2022-11-11T10:42:08;8.03;;;4.90;;
19836;SDS011;10079;55.740;37.662;2022-11-11T10:45:21;7.83;;;4.70;;
19836;SDS011;10079;55.740;37.662;2022-11-11T10:48:50;8.20;;;5.03;;
19836;SDS011;10079;55.740;37.662;2022-11-11T10:51:58;8.17;;;4.60;;
19836;SDS011;10079;55.740;37.662;2022-11-11T10:55:03;6.47;;;4.70;;
19836;SDS011;10079;55.740;37.662;2022-11-11T10:58:19;7.23;;;5.37;;
19836;SDS011;10079;55.740;37.662;2022-11-11T11:01:39;6.60;;;5.13;;
19836;SDS011;10079;55.740;37.662;2022-11-11T11:04:51;9.23;;;5.27;;
19836;SDS011;10079;55.740;37.662;2022-11-11T11:08:06;9.90;;;5.07;;
19836;SDS011;10079;55.740;37.662;2022-11-11T11:11:15;7.80;;;4.77;;
19836;SDS011;10079;55.740;37.662;2022-11-11T11:14:20;8.73;;;4.53;;
19836;SDS011;10079;55.740;37.662;2022-11-11T11:17:23;6.67;;;4.70;;
19836;SDS011;10079;55.740;37.662;2022-11-11T11:20:35;8.43;;;5.07;;
19836;SDS011;10079;55.740;37.662;2022-11-11T11:23:45;7.37;;;4.70;;
19836;SDS011;10079;55.740;37.662;2022-11-11T11:48:22;6.87;;;4.77;;
19836;SDS011;10079;55.740;37.662;2022-11-11T11:51:27;7.73;;;4.77;;
19836;SDS011;10079;55.740;37.662;2022-11-11T11:54:40;8.77;;;5.27;;
19836;SDS011;10079;55.740;37.662;2022-11-11T11:58:06;7.50;;;5.63;;
19836;SDS011;10079;55.740;37.662;2022-11-11T12:01:34;11.40;;;5.47;;
19836;SDS011;10079;55.740;37.662;2022-11-11T12:05:07;10.30;;;5.57;;
19836;SDS011;10079;55.740;37.662;2022-11-11T12:08:35;8.67;;;5.37;;
19836;SDS011;10079;55.740;37.662;2022-11-11T12:11:40;12.40;;;5.90;;
19836;SDS011;10079;55.740;37.662;2022-11-11T12:14:51;13.33;;;6.30;;
19836;SDS011;10079;55.740;37.662;2022-11-11T12:21:33;9.70;;;5.50;;
19836;SDS011;10079;55.740;37.662;2022-11-11T12:25:00;8.17;;;5.53;;
19836;SDS011;10079;55.740;37.662;2022-11-11T12:28:41;10.37;;;6.00;;
19836;SDS011;10079;55.740;37.662;2022-11-11T12:32:00;11.23;;;6.37;;
19836;SDS011;10079;55.740;37.662;2022-11-11T12:35:14;12.40;;;6.07;;
19836;SDS011;10079;55.740;37.662;2022-11-11T12:45:12;7.93;;;5.43;;
19836;SDS011;10079;55.740;37.662;2022-11-11T12:48:37;12.03;;;6.30;;
19836;SDS011;10079;55.740;37.662;2022-11-11T12:51:49;9.70;;;6.10;;
19836;SDS011;10079;55.740;37.662;2022-11-11T12:55:08;9.73;;;6.03;;
19836;SDS011;10079;55.740;37.662;2022-11-11T12:58:45;9.33;;;5.47;;
19836;SDS011;10079;55.740;37.662;2022-11-11T13:01:37;12.90;;;6.30;;
19836;SDS011;10079;55.740;37.662;2022-11-11T13:04:49;7.37;;;5.20;;
19836;SDS011;10079;55.740;37.662;2022-11-11T13:08:15;7.40;;;5.00;;
19836;SDS011;10079;55.740;37.662;2022-11-11T13:22:29;8.10;;;5.60;;
19836;SDS011;10079;55.740;37.662;2022-11-11T13:25:32;11.33;;;5.97;;
19836;SDS011;10079;55.740;37.662;2022-11-11T13:31:45;8.53;;;4.97;;
19836;SDS011;10079;55.740;37.662;2022-11-11T13:34:52;10.53;;;5.07;;
19836;SDS011;10079;55.740;37.662;2022-11-11T13:37:58;6.53;;;4.60;;
19836;SDS011;10079;55.740;37.662;2022-11-11T13:41:03;9.13;;;5.03;;
19836;SDS011;10079;55.740;37.662;2022-11-11T13:44:07;7.60;;;4.50;;
19836;SDS011;10079;55.740;37.662;2022-11-11T13:47:11;7.00;;;4.47;;
19836;SDS011;10079;55.740;37.662;2022-11-11T13:50:21;6.40;;;4.53;;
19836;SDS011;10079;55.740;37.662;2022-11-11T13:53:27;6.47;;;4.40;;
19836;SDS011;10079;55.740;37.662;2022-11-11T13:56:39;6.10;;;4.00;;
19836;SDS011;10079;55.740;37.662;2022-11-11T13:59:41;5.60;;;4.03;;
19836;SDS011;10079;55.740;37.662;2022-11-11T14:09:53;11.43;;;6.07;;
19836;SDS011;10079;55.740;37.662;2022-11-11T14:12:57;7.87;;;4.67;;
19836;SDS011;10079;55.740;37.662;2022-11-11T14:19:51;7.63;;;3.97;;
19836;SDS011;10079;55.740;37.662;2022-11-11T14:26:29;4.83;;;4.07;;
19836;SDS011;10079;55.740;37.662;2022-11-11T14:29:37;5.67;;;3.47;;
19836;SDS011;10079;55.740;37.662;2022-11-11T14:32:46;6.03;;;3.80;;
19836;SDS011;10079;55.740;37.662;2022-11-11T14:36:04;4.43;;;3.23;;
19836;SDS011;10079;55.740;37.662;2022-11-11T14:45:51;3.67;;;3.13;;
19836;SDS011;10079;55.740;37.662;2022-11-11T14:49:00;4.77;;;3.40;;
19836;SDS011;10079;55.740;37.662;2022-11-11T14:52:18;6.53;;;3.27;;
19836;SDS011;10079;55.740;37.662;2022-11-11T14:55:31;4.20;;;3.27;;
19836;SDS011;10079;55.740;37.662;2022-11-11T14:58:37;7.23;;;3.77;;
19836;SDS011;10079;55.740;37.662;2022-11-11T15:01:43;7.23;;;4.40;;
19836;SDS011;10079;55.740;37.662;2022-11-11T15:04:46;4.83;;;3.47;;
19836;SDS011;10079;55.740;37.662;2022-11-11T15:07:58;5.53;;;3.63;;
19836;SDS011;10079;55.740;37.662;2022-11-11T15:11:20;7.60;;;3.53;;
19836;SDS011;10079;55.740;37.662;2022-11-11T15:14:40;5.70;;;4.00;;
19836;SDS011;10079;55.740;37.662;2022-11-11T15:18:01;5.97;;;4.47;;
19836;SDS011;10079;55.740;37.662;2022-11-11T15:21:16;4.47;;;3.50;;
19836;SDS011;10079;55.740;37.662;2022-11-11T15:24:31;5.17;;;3.50;;
19836;SDS011;10079;55.740;37.662;2022-11-11T15:27:35;4.53;;;2.97;;
19836;SDS011;10079;55.740;37.662;2022-11-11T15:30:50;6.53;;;3.43;;
19836;SDS011;10079;55.740;37.662;2022-11-11T15:34:21;4.80;;;3.37;;
19836;SDS011;10079;55.740;37.662;2022-11-11T15:37:39;5.03;;;3.43;;
19836;SDS011;10079;55.740;37.662;2022-11-11T15:40:47;4.53;;;3.13;;
19836;SDS011;10079;55.740;37.662;2022-11-11T15:43:53;6.70;;;4.40;;
19836;SDS011;10079;55.740;37.662;2022-11-11T15:46:57;7.80;;;3.77;;
19836;SDS011;10079;55.740;37.662;2022-11-11T15:50:05;7.27;;;3.57;;
19836;SDS011;10079;55.740;37.662;2022-11-11T15:53:12;7.17;;;3.93;;
19836;SDS011;10079;55.740;37.662;2022-11-11T15:56:26;7.73;;;4.77;;
19836;SDS011;10079;55.740;37.662;2022-11-11T15:59:29;8.17;;;4.40;;
19836;SDS011;10079;55.740;37.662;2022-11-11T16:02:33;7.80;;;4.60;;
19836;SDS011;10079;55.740;37.662;2022-11-11T16:05:35;6.47;;;3.63;;
19836;SDS011;10079;55.740;37.662;2022-11-11T16:08:40;6.23;;;4.00;;
19836;SDS011;10079;55.740;37.662;2022-11-11T16:11:44;5.03;;;3.40;;
19836;SDS011;10079;55.740;37.662;2022-11-11T16:14:46;7.57;;;4.17;;
19836;SDS011;10079;55.740;37.662;2022-11-11T16:17:53;10.60;;;4.77;;
19836;SDS011;10079;55.740;37.662;2022-11-11T16:21:04;5.97;;;4.17;;
19836;SDS011;10079;55.740;37.662;2022-11-11T16:24:25;7.90;;;4.27;;
19836;SDS011;10079;55.740;37.662;2022-11-11T16:27:27;7.17;;;4.37;;
19836;SDS011;10079;55.740;37.662;2022-11-11T16:30:32;6.13;;;3.87;;
19836;SDS011;10079;55.740;37.662;2022-11-11T16:33:35;8.53;;;4.17;;
19836;SDS011;10079;55.740;37.662;2022-11-11T16:50:54;7.20;;;4.03;;
19836;SDS011;10079;55.740;37.662;2022-11-11T16:54:06;7.10;;;3.83;;
19836;SDS011;10079;55.740;37.662;2022-11-11T16:57:08;6.60;;;3.93;;
19836;SDS011;10079;55.740;37.662;2022-11-11T17:00:14;7.47;;;3.27;;
19836;SDS011;10079;55.740;37.662;2022-11-11T17:03:19;6.53;;;3.33;;
19836;SDS011;10079;55.740;37.662;2022-11-11T17:09:51;6.63;;;3.43;;
19836;SDS011;10079;55.740;37.662;2022-11-11T17:13:05;5.67;;;3.50;;
19836;SDS011;10079;55.740;37.662;2022-11-11T17:26:40;5.83;;;3.50;;
19836;SDS011;10079;55.740;37.662;2022-11-11T17:29:46;7.77;;;3.03;;
19836;SDS011;10079;55.740;37.662;2022-11-11T17:33:01;6.60;;;3.57;;
19836;SDS011;10079;55.740;37.662;2022-11-11T17:36:14;7.47;;;3.90;;
19836;SDS011;10079;55.740;37.662;2022-11-11T17:39:19;5.43;;;4.30;;
19836;SDS011;10079;55.740;37.662;2022-11-11T17:42:23;5.60;;;3.67;;
19836;SDS011;10079;55.740;37.662;2022-11-11T17:45:34;4.23;;;2.90;;
19836;SDS011;10079;55.740;37.662;2022-11-11T17:48:46;4.97;;;3.43;;
19836;SDS011;10079;55.740;37.662;2022-11-11T17:51:50;5.10;;;3.53;;
19836;SDS011;10079;55.740;37.662;2022-11-11T17:54:53;6.67;;;3.73;;
19836;SDS011;10079;55.740;37.662;2022-11-11T17:58:00;5.13;;;4.00;;
19836;SDS011;10079;55.740;37.662;2022-11-11T18:01:06;7.57;;;4.10;;
19836;SDS011;10079;55.740;37.662;2022-11-11T18:04:12;5.50;;;3.90;;
19836;SDS011;10079;55.740;37.662;2022-11-11T18:07:28;8.50;;;4.50;;
19836;SDS011;10079;55.740;37.662;2022-11-11T18:10:34;7.30;;;5.00;;
19836;SDS011;10079;55.740;37.662;2022-11-11T18:13:37;7.27;;;4.87;;
19836;SDS011;10079;55.740;37.662;2022-11-11T18:16:40;7.93;;;4.47;;
19836;SDS011;10079;55.740;37.662;2022-11-11T18:19:43;7.63;;;4.50;;
19836;SDS011;10079;55.740;37.662;2022-11-11T18:22:53;8.27;;;4.40;;
19836;SDS011;10079;55.740;37.662;2022-11-11T18:25:53;8.43;;;5.37;;
19836;SDS011;10079;55.740;37.662;2022-11-11T18:28:56;9.50;;;5.37;;
19836;SDS011;10079;55.740;37.662;2022-11-11T18:31:59;7.43;;;4.47;;
19836;SDS011;10079;55.740;37.662;2022-11-11T18:35:02;8.90;;;4.83;;
19836;SDS011;10079;55.740;37.662;2022-11-11T18:38:05;6.53;;;4.70;;
19836;SDS011;10079;55.740;37.662;2022-11-11T18:41:09;6.27;;;4.73;;
19836;SDS011;10079;55.740;37.662;2022-11-11T18:44:11;6.00;;;5.07;;
19836;SDS011;10079;55.740;37.662;2022-11-11T18:47:14;9.07;;;5.03;;
19836;SDS011;10079;55.740;37.662;2022-11-11T18:50:20;7.80;;;4.10;;
19836;SDS011;10079;55.740;37.662;2022-11-11T18:53:23;8.60;;;4.60;;
19836;SDS011;10079;55.740;37.662;2022-11-11T18:56:26;8.97;;;4.70;;
19836;SDS011;10079;55.740;37.662;2022-11-11T18:59:31;9.57;;;4.43;;
19836;SDS011;10079;55.740;37.662;2022-11-11T19:02:34;6.50;;;5.00;;
19836;SDS011;10079;55.740;37.662;2022-11-11T19:05:38;7.20;;;4.67;;
19836;SDS011;10079;55.740;37.662;2022-11-11T19:08:41;8.67;;;5.03;;
19836;SDS011;10079;55.740;37.662;2022-11-11T19:11:50;6.70;;;4.70;;
19836;SDS011;10079;55.740;37.662;2022-11-11T19:14:53;11.33;;;4.90;;
19836;SDS011;10079;55.740;37.662;2022-11-11T19:18:05;7.53;;;4.70;;
19836;SDS011;10079;55.740;37.662;2022-11-11T19:21:12;7.87;;;4.43;;
19836;SDS011;10079;55.740;37.662;2022-11-11T19:34:58;6.00;;;4.00;;
19836;SDS011;10079;55.740;37.662;2022-11-11T19:48:44;7.27;;;4.27;;
19836;SDS011;10079;55.740;37.662;2022-11-11T19:51:50;6.87;;;4.40;;
19836;SDS011;10079;55.740;37.662;2022-11-11T19:54:53;6.03;;;4.10;;
19836;SDS011;10079;55.740;37.662;2022-11-11T19:57:57;7.13;;;4.57;;
19836;SDS011;10079;55.740;37.662;2022-11-11T20:01:10;6.90;;;4.50;;
19836;SDS011;10079;55.740;37.662;2022-11-11T20:04:17;10.03;;;4.23;;
19836;SDS011;10079;55.740;37.662;2022-11-11T20:07:22;7.23;;;4.40;;
19836;SDS011;10079;55.740;37.662;2022-11-11T20:10:25;5.80;;;4.57;;
19836;SDS011;10079;55.740;37.662;2022-11-11T20:13:31;7.93;;;4.90;;
19836;SDS011;10079;55.740;37.662;2022-11-11T20:16:34;6.50;;;4.47;;
19836;SDS011;10079;55.740;37.662;2022-11-11T20:19:37;8.63;;;4.90;;
19836;SDS011;10079;55.740;37.662;2022-11-11T20:22:40;6.33;;;4.70;;
19836;SDS011;10079;55.740;37.662;2022-11-11T20:25:43;5.80;;;4.30;;
19836;SDS011;10079;55.740;37.662;2022-11-11T20:28:53;8.33;;;4.63;;
19836;SDS011;10079;55.740;37.662;2022-11-11T20:32:05;7.57;;;5.10;;
19836;SDS011;10079;55.740;37.662;2022-11-11T20:35:16;7.63;;;5.27;;
19836;SDS011;10079;55.740;37.662;2022-11-11T20:38:20;8.10;;;4.77;;
19836;SDS011;10079;55.740;37.662;2022-11-11T20:41:24;9.93;;;5.20;;
19836;SDS011;10079;55.740;37.662;2022-11-11T20:44:27;8.33;;;5.00;;
19836;SDS011;10079;55.740;37.662;2022-11-11T20:47:30;7.60;;;5.27;;
19836;SDS011;10079;55.740;37.662;2022-11-11T20:50:35;6.93;;;5.07;;
19836;SDS011;10079;55.740;37.662;2022-11-11T20:53:51;8.97;;;5.43;;
19836;SDS011;10079;55.740;37.662;2022-11-11T20:57:04;7.47;;;5.13;;
19836;SDS011;10079;55.740;37.662;2022-11-11T21:00:07;9.83;;;5.90;;
19836;SDS011;10079;55.740;37.662;2022-11-11T21:03:11;9.33;;;6.00;;
19836;SDS011;10079;55.740;37.662;2022-11-11T21:06:16;9.73;;;5.93;;
19836;SDS011;10079;55.740;37.662;2022-11-11T21:09:18;10.13;;;5.50;;
19836;SDS011;10079;55.740;37.662;2022-11-11T21:12:20;9.90;;;5.87;;
19836;SDS011;10079;55.740;37.662;2022-11-11T21:15:27;11.23;;;6.50;;
19836;SDS011;10079;55.740;37.662;2022-11-11T21:18:29;9.97;;;6.30;;
19836;SDS011;10079;55.740;37.662;2022-11-11T21:21:36;10.83;;;6.20;;
19836;SDS011;10079;55.740;37.662;2022-11-11T21:24:39;10.10;;;6.10;;
19836;SDS011;10079;55.740;37.662;2022-11-11T21:27:43;9.23;;;6.13;;
19836;SDS011;10079;55.740;37.662;2022-11-11T21:30:46;8.80;;;5.93;;
19836;SDS011;10079;55.740;37.662;2022-11-11T21:33:54;8.67;;;5.77;;
19836;SDS011;10079;55.740;37.662;2022-11-11T21:36:55;9.37;;;5.97;;
19836;SDS011;10079;55.740;37.662;2022-11-11T21:39:58;11.67;;;6.67;;
19836;SDS011;10079;55.740;37.662;2022-11-11T21:43:02;10.80;;;6.20;;
19836;SDS011;10079;55.740;37.662;2022-11-11T21:46:05;9.43;;;5.80;;
19836;SDS011;10079;55.740;37.662;2022-11-11T21:49:08;11.93;;;6.00;;
19836;SDS011;10079;55.740;37.662;2022-11-11T21:52:11;8.30;;;5.97;;